Wednesday, August 15, 2018, 10:58 PM CDT
Back to Local

KPPF, Parsons Tri-city Airport

Location: Cherryvale, KS, United States Lat: 37.333
Local Time: 10:58 PM CDT ( 3:58 GMT) Lon: -95.5
Time Zone: US/Central Elev: 898 ft

Show me the last for .
Show Decoded

2018-08-15 21:52 METAR KPPF 160252Z AUTO 00000KT 10SM FEW049 21/21 A2994 RMK AO2 SLP130 T02110206
                 53018 =
2018-08-15 20:52 METAR KPPF 160152Z AUTO 00000KT 10SM CLR 22/21 A2991 RMK AO2 SLP120 T02220211 =
2018-08-15 19:52 METAR KPPF 160052Z AUTO 29003KT 10SM CLR 26/21 A2990 RMK AO2 SLP114 T02610211 =
2018-08-15 18:52 METAR KPPF 152352Z AUTO 28005KT 10SM FEW037 28/21 A2989 RMK AO2 SLP110 T02830206
                 10300 20272 57001 =
2018-08-15 17:52 METAR KPPF 152252Z AUTO 25005KT 10SM BKN065 28/22 A2989 RMK AO2 SLP111 T02780217
                 =
2018-08-15 16:52 METAR KPPF 152152Z AUTO 26005KT 10SM SCT048 BKN060 OVC070 28/22 A2989 RMK AO2
                 SLP111 T02830217 =
2018-08-15 15:52 METAR KPPF 152052Z AUTO 24005KT 10SM FEW042 BKN065 BKN080 29/22 A2989 RMK AO2
                 SLP112 T02940222 58011 =
2018-08-15 14:52 METAR KPPF 151952Z AUTO 22008KT 10SM FEW048 BKN075 29/22 A2990 RMK AO2 SLP115
                 T02940217 =
2018-08-15 13:52 METAR KPPF 151852Z AUTO 22004KT 10SM FEW023 SCT031 OVC065 27/22 A2992 RMK AO2
                 SLP121 T02720217 =
2018-08-15 12:52 METAR KPPF 151752Z AUTO 28006KT 10SM FEW022 SCT031 BKN070 28/23 A2993 RMK AO2
                 SLP124 T02780228 10278 20217 50000 =
2018-08-15 12:08 METAR KPPF 151708Z AUTO VRB03KT 10SM FEW021 SCT050 BKN070 27/22 A2993 RMK AO2
                 T02720222 =
2018-08-15 11:52 METAR KPPF 151652Z AUTO 31005KT 10SM FEW021 BKN028 BKN065 26/22 A2993 RMK AO2
                 SLP125 T02610217 =
2018-08-15 10:52 METAR KPPF 151552Z AUTO 25005KT 10SM SCT013 BKN019 BKN044 25/23 A2993 RMK AO2
                 SLP127 T02500228 =
2018-08-15 10:39 METAR KPPF 151539Z AUTO 23007KT 10SM SCT013 BKN019 OVC046 25/23 A2993 RMK AO2
                 T02500228 =
2018-08-15 10:32 METAR KPPF 151532Z AUTO 24006KT 10SM BKN013 BKN035 OVC048 24/23 A2993 RMK AO2
                 T02440228 =
2018-08-15 10:01 METAR KPPF 151501Z AUTO 22006KT 10SM SCT025 OVC050 24/22 A2992 RMK AO2 T02440222
                 =
2018-08-15 09:52 METAR KPPF 151452Z AUTO 21008KT 10SM BKN025 OVC050 24/23 A2993 RMK AO2 SLP124
                 T02440228 53006 =
2018-08-15 09:29 METAR KPPF 151429Z AUTO 21006KT 10SM BKN027 OVC033 23/22 A2992 RMK AO2 T02330217
                 =
2018-08-15 08:52 METAR KPPF 151352Z AUTO 21005KT 10SM FEW027 OVC031 23/22 A2992 RMK AO2 SLP122
                 T02280217 =
2018-08-15 07:52 METAR KPPF 151252Z AUTO 21003KT 10SM OVC031 22/22 A2991 RMK AO2 SLP121 T02220217
                 =
2018-08-15 06:52 METAR KPPF 151152Z AUTO 21004KT 10SM OVC034 22/22 A2991 RMK AO2 SLP119 60009
                 70207 T02170217 10222 20206 53002 =
2018-08-15 06:11 METAR KPPF 151111Z AUTO 19003KT 10SM SCT006 OVC036 22/22 A2990 RMK AO2 T02170217
                 $ =
2018-08-15 05:52 METAR KPPF 151052Z AUTO 22003KT 10SM FEW006 BKN010 OVC038 22/22 A2990 RMK AO2
                 RAB02E19 SLP115 P0001 T02170217 $ =
2018-08-15 05:40 METAR KPPF 151040Z AUTO 21003KT 10SM BKN009 OVC040 22/22 A2989 RMK AO2 RAB02E19
                 P0001 T02170217 $ =
2018-08-15 05:17 METAR KPPF 151017Z AUTO 20003KT 10SM -RA SCT004 OVC040 22/22 A2989 RMK AO2 RAB02
                 P0001 T02170217 $ =
2018-08-15 04:52 METAR KPPF 150952Z AUTO 24003KT 10SM BKN004 OVC012 22/22 A2990 RMK AO2 RAB03E36
                 SLP115 P0001 T02170217 $ =
2018-08-15 04:47 METAR KPPF 150947Z AUTO 24003KT 10SM BKN004 BKN012 OVC042 22/22 A2990 RMK AO2
                 RAB03E36 P0001 $ =
2018-08-15 04:39 METAR KPPF 150939Z AUTO 25004KT 10SM SCT005 BKN012 OVC042 22/22 A2990 RMK AO2
                 RAB03E36 P0001 T02220217 $ =
2018-08-15 04:30 METAR KPPF 150930Z AUTO 23004KT 10SM -RA SCT007 BKN033 OVC040 22/22 A2990 RMK
                 AO2 RAB03 P0001 T02220217 $ =
2018-08-15 03:52 METAR KPPF 150852Z AUTO 21006KT 10SM BKN042 OVC070 22/21 A2991 RMK AO2
                 RAB0758E22 SLP118 P0001 60007 T02170211 50003 $ =
2018-08-15 02:52 METAR KPPF 150752Z AUTO 19005KT 10SM SCT028 BKN037 OVC055 21/21 A2991 RMK AO2
                 RAE0658 SLP118 P0000 T02110211 $ =
2018-08-15 02:49 METAR KPPF 150749Z AUTO 18003KT 10SM BKN028 BKN037 OVC046 21/21 A2991 RMK AO2
                 RAE0658 P0000 $ =
2018-08-15 01:52 METAR KPPF 150652Z AUTO 16004KT 10SM -RA FEW044 BKN060 OVC100 21/20 A2990 RMK
                 AO2 RAB06 SLP115 P0006 T02060200 $ =
2018-08-15 00:52 METAR KPPF 150552Z AUTO 20004KT 10SM BKN065 OVC080 21/21 A2991 RMK AO2 LTG DSNT
                 E-S RAE42 SLP118 P0001 60153 T02110206 10233 20206 402670206 55011 $ =
2018-08-15 00:27 METAR KPPF 150527Z AUTO 19005KT 10SM -RA SCT070 OVC110 21/21 A2991 RMK AO2 LTG
                 DSNT E-SW P0001 T02110206 $ =
2018-08-14 23:52 METAR KPPF 150452Z AUTO 19007KT 8SM VCTS RA OVC095 21/21 A2991 RMK AO2 LTG DSNT
                 SE-W TSE0358B0359E47 SLP118 P0024 T02110211 $ =

Support USWX by starting your Amazon purchase here.